Terminal Aerodrome Forecast
Issued by NWS Sterling, VA

Current Version | Previous Version | Text Only | Print | Product List | Glossary Off
Versions: 1 2 3 4 5 6 7 8 9 10 11 12 13 14 15 16 17 18 19 20 21 22 23 24

796
FTUS41 KLWX 181721
TAFDCA
TAF
KDCA 181721Z 1818/1918 19010G19KT P6SM SCT070 OVC200
     FM190100 20015G27KT P6SM SCT040 OVC200
     FM190300 20016G30KT 6SM -SHRA SCT035 OVC100
     FM191000 25016G28KT 6SM -SHRA SCT035 OVC045
     FM191200 28019G34KT P6SM SCT040 BKN150=

USA.gov is the U.S. government's official web portal to all federal, state and local government web resources and services.